Observation data for Tulia on 06/25/2019      Previous  Date  Next       Current Mesonet Observations  Soil Data  Daily Summary Page  Observations in Plain Language
KTIS 250500Z 12010KT 21/16 A2999 RMK A01 T02070155  RH  076%=      5-min Rain = 0
KTIS 250505Z 13010KT 21/16 A2999 RMK A01 T02060155  RH  076%=      5-min Rain = 0
KTIS 250510Z 13010KT 21/16 A2999 RMK A01 T02080155  RH  075%=      5-min Rain = 0
KTIS 250515Z 13010KT 21/15 A2999 RMK A01 T02080154  RH  075%=      5-min Rain = 0
KTIS 250520Z 13009KT 21/15 A2999 RMK A01 T02080154  RH  075%=      5-min Rain = 0
KTIS 250525Z 13010KT 21/15 A2999 RMK A01 T02070154  RH  075%=      5-min Rain = 0
KTIS 250530Z 14009KT 21/15 A2999 RMK A01 T02070153  RH  075%=      5-min Rain = 0
KTIS 250535Z 15010KT 21/15 A30 RMK A01 T02060154  RH  075%=      5-min Rain = 0
KTIS 250540Z 15010KT 21/16 A30 RMK A01 T02060155  RH  076%=      5-min Rain = 0
KTIS 250545Z 15010KT 21/16 A30 RMK A01 T02060155  RH  076%=      5-min Rain = 0
KTIS 250550Z 14010KT 21/16 A30 RMK A01 T02060155  RH  076%=      5-min Rain = 0
KTIS 250555Z 14008KT 20/16 A30 RMK A01 T02040155  RH  077%=      5-min Rain = 0
KTIS 250600Z 14008KT 20/16 A30 RMK A01 T02020156  RH  078%=      5-min Rain = 0
KTIS 250605Z 14008KT 21/16 A30 RMK A01 T02050157  RH  077%=      5-min Rain = 0
KTIS 250610Z 14008KT 21/16 A2999 RMK A01 T02060157  RH  077%=      5-min Rain = 0
KTIS 250615Z 14008KT 21/16 A2999 RMK A01 T02060157  RH  077%=      5-min Rain = 0
KTIS 250620Z 14008KT 21/16 A2999 RMK A01 T02060157  RH  077%=      5-min Rain = 0
KTIS 250625Z 13008KT 21/16 A2999 RMK A01 T02070158  RH  077%=      5-min Rain = 0
KTIS 250630Z 13006KT 21/16 A2999 RMK A01 T02060159  RH  078%=      5-min Rain = 0
KTIS 250635Z 11005KT 21/16 A2999 RMK A01 T02050158  RH  078%=      5-min Rain = 0
KTIS 250640Z 12006KT 20/16 A2999 RMK A01 T02020158  RH  079%=      5-min Rain = 0
KTIS 250645Z 12006KT 20/16 A2999 RMK A01 T02030159  RH  080%=      5-min Rain = 0
KTIS 250650Z 14006KT 20/16 A2998 RMK A01 T02030160  RH  080%=      5-min Rain = 0
KTIS 250655Z 14006KT 20/16 A2998 RMK A01 T02010160  RH  081%=      5-min Rain = 0
KTIS 250700Z 13006KT 20/16 A2998 RMK A01 T01990160  RH  082%=      5-min Rain = 0
KTIS 250705Z 12005KT 20/16 A2998 RMK A01 T01990160  RH  082%=      5-min Rain = 0
KTIS 250710Z 12004KT 20/16 A2998 RMK A01 T01990160  RH  082%=      5-min Rain = 0
KTIS 250715Z 13004KT 20/16 A2998 RMK A01 T01970160  RH  083%=      5-min Rain = 0
KTIS 250720Z 12005KT 19/16 A2998 RMK A01 T01930158  RH  084%=      5-min Rain = 0
KTIS 250725Z 12005KT 19/16 A2998 RMK A01 T01900158  RH  085%=      5-min Rain = 0
KTIS 250730Z 12005KT 19/16 A2998 RMK A01 T01900158  RH  086%=      5-min Rain = 0
KTIS 250735Z 12005KT 19/16 A2998 RMK A01 T01890158  RH  086%=      5-min Rain = 0
KTIS 250740Z 13004KT 19/16 A2998 RMK A01 T01890159  RH  087%=      5-min Rain = 0
KTIS 250745Z 13004KT 19/16 A2998 RMK A01 T01880158  RH  087%=      5-min Rain = 0
KTIS 250750Z 15004KT 19/16 A2998 RMK A01 T01860158  RH  088%=      5-min Rain = 0
KTIS 250755Z 15004KT 19/16 A2998 RMK A01 T01850157  RH  088%=      5-min Rain = 0
KTIS 250800Z 14004KT 18/16 A2998 RMK A01 T01820155  RH  088%=      5-min Rain = 0
KTIS 250805Z 12004KT 18/15 A2999 RMK A01 T01760150  RH  088%=      5-min Rain = 0
KTIS 250810Z 11004KT 17/15 A2999 RMK A01 T01740149  RH  089%=      5-min Rain = 0
KTIS 250815Z 13004KT 17/15 A2999 RMK A01 T01730150  RH  090%=      5-min Rain = 0
KTIS 250820Z 15003KT 17/15 A2999 RMK A01 T01730150  RH  090%=      5-min Rain = 0
KTIS 250825Z 15002KT 17/15 A2999 RMK A01 T01730151  RH  091%=      5-min Rain = 0
KTIS 250830Z 13003KT 17/15 A2999 RMK A01 T01730151  RH  091%=      5-min Rain = 0
KTIS 250835Z 13003KT 17/15 A2999 RMK A01 T01710148  RH  090%=      5-min Rain = 0
KTIS 250840Z 16004KT 17/15 A2999 RMK A01 T01730152  RH  092%=      5-min Rain = 0
KTIS 250845Z 15004KT 18/15 A2999 RMK A01 T01750154  RH  091%=      5-min Rain = 0
KTIS 250850Z 13004KT 17/15 A2999 RMK A01 T01720151  RH  091%=      5-min Rain = 0
KTIS 250855Z 14003KT 17/15 A2999 RMK A01 T01700149  RH  091%=      5-min Rain = 0
KTIS 250900Z 14003KT 17/15 A2999 RMK A01 T01700150  RH  092%=      5-min Rain = 0
KTIS 250905Z 14003KT 17/15 A2999 RMK A01 T01690149  RH  092%=      5-min Rain = 0
KTIS 250910Z 14004KT 17/15 A2999 RMK A01 T01680148  RH  092%=      5-min Rain = 0
KTIS 250915Z 14004KT 17/15 A2999 RMK A01 T01680149  RH  092%=      5-min Rain = 0
KTIS 250920Z 14004KT 17/15 A2999 RMK A01 T01670146  RH  092%=      5-min Rain = 0
KTIS 250925Z 14003KT 16/14 A2999 RMK A01 T01640143  RH  091%=      5-min Rain = 0
KTIS 250930Z 14003KT 17/14 A2999 RMK A01 T01650144  RH  092%=      5-min Rain = 0
KTIS 250935Z 14002KT 17/14 A2999 RMK A01 T01650144  RH  091%=      5-min Rain = 0
KTIS 250940Z 15001KT 16/14 A2999 RMK A01 T01630141  RH  091%=      5-min Rain = 0
KTIS 250945Z 15001KT 16/14 A2999 RMK A01 T01610140  RH  091%=      5-min Rain = 0
KTIS 250950Z 15001KT 16/14 A2999 RMK A01 T01610141  RH  092%=      5-min Rain = 0
KTIS 250955Z 15001KT 16/14 A2999 RMK A01 T01620143  RH  092%=      5-min Rain = 0
KTIS 251000Z 08000KT 16/13 A2999 RMK A01 T01570133  RH  090%=      5-min Rain = 0
KTIS 251005Z 06003KT 15/13 A2999 RMK A01 T01510127  RH  089%=      5-min Rain = 0
KTIS 251010Z 06001KT 15/13 A2999 RMK A01 T01540133  RH  091%=      5-min Rain = 0
KTIS 251015Z 00000KT 15/13 A2999 RMK A01 T01530129  RH  089%=      5-min Rain = 0
KTIS 251020Z 00000KT 15/13 A2999 RMK A01 T01490125  RH  089%=      5-min Rain = 0
KTIS 251025Z 06000KT 15/13 A2999 RMK A01 T01480125  RH  089%=      5-min Rain = 0
KTIS 251030Z 06001KT 15/13 A2999 RMK A01 T01480126  RH  090%=      5-min Rain = 0
KTIS 251035Z 12002KT 15/13 A30 RMK A01 T01470125  RH  090%=      5-min Rain = 0
KTIS 251040Z 14005KT 15/13 A30 RMK A01 T01470126  RH  090%=      5-min Rain = 0
KTIS 251045Z 13004KT 15/13 A30 RMK A01 T01510132  RH  092%=      5-min Rain = 0
KTIS 251050Z 16005KT 15/13 A30 RMK A01 T01520133  RH  092%=      5-min Rain = 0
KTIS 251055Z 16006KT 16/14 A3001 RMK A01 T01550135  RH  091%=      5-min Rain = 0
KTIS 251100Z 16006KT 16/14 A30 RMK A01 T01570136  RH  091%=      5-min Rain = 0
KTIS 251105Z 17006KT 16/14 A30 RMK A01 T01580136  RH  090%=      5-min Rain = 0
KTIS 251110Z 17006KT 16/13 A30 RMK A01 T01590133  RH  088%=      5-min Rain = 0
KTIS 251115Z 17006KT 16/13 A3001 RMK A01 T01600133  RH  087%=      5-min Rain = 0
KTIS 251120Z 16007KT 16/13 A3001 RMK A01 T01610133  RH  087%=      5-min Rain = 0
KTIS 251125Z 16006KT 16/13 A3001 RMK A01 T01580131  RH  088%=      5-min Rain = 0
KTIS 251130Z 16006KT 16/13 A3001 RMK A01 T01570131  RH  088%=      5-min Rain = 0
KTIS 251135Z 18007KT 16/13 A3002 RMK A01 T01570130  RH  087%=      5-min Rain = 0
KTIS 251140Z 18006KT 16/13 A3002 RMK A01 T01590129  RH  085%=      5-min Rain = 0
KTIS 251145Z 18005KT 16/13 A3002 RMK A01 T01570127  RH  086%=      5-min Rain = 0
KTIS 251150Z 17004KT 16/13 A3002 RMK A01 T01570126  RH  085%=      5-min Rain = 0
KTIS 251155Z 16002KT 16/13 A3002 RMK A01 T01570128  RH  086%=      5-min Rain = 0
KTIS 251200Z 15003KT 16/13 A3003 RMK A01 T01550126  RH  086%=      5-min Rain = 0
KTIS 251205Z 14004KT 15/13 A3003 RMK A01 T01530125  RH  087%=      5-min Rain = 0
KTIS 251210Z 14005KT 15/13 A3003 RMK A01 T01540128  RH  088%=      5-min Rain = 0
KTIS 251215Z 15005KT 16/13 A3003 RMK A01 T01580130  RH  087%=      5-min Rain = 0
KTIS 251220Z 16005KT 16/13 A3003 RMK A01 T01610131  RH  085%=      5-min Rain = 0
KTIS 251225Z 16003KT 16/13 A3003 RMK A01 T01640131  RH  084%=      5-min Rain = 0
KTIS 251230Z 16002KT 17/13 A3003 RMK A01 T01670131  RH  083%=      5-min Rain = 0
KTIS 251235Z 16002KT 17/13 A3003 RMK A01 T01710133  RH  082%=      5-min Rain = 0
KTIS 251240Z 16002KT 17/13 A3003 RMK A01 T01740134  RH  081%=      5-min Rain = 0
KTIS 251245Z 17003KT 18/14 A3003 RMK A01 T01770135  RH  080%=      5-min Rain = 0
KTIS 251250Z 18004KT 18/13 A3003 RMK A01 T01790130  RH  076%=      5-min Rain = 0
KTIS 251255Z 19003KT 18/13 A3003 RMK A01 T01800131  RH  076%=      5-min Rain = 0
KTIS 251300Z 19004KT 18/13 A3003 RMK A01 T01840132  RH  075%=      5-min Rain = 0
KTIS 251305Z 20005KT 19/13 A3003 RMK A01 T01890133  RH  073%=      5-min Rain = 0
KTIS 251310Z 22004KT 19/13 A3003 RMK A01 T01930133  RH  071%=      5-min Rain = 0
KTIS 251315Z 23007KT 20/13 A3003 RMK A01 T01950131  RH  069%=      5-min Rain = 0
KTIS 251320Z 22006KT 20/13 A3003 RMK A01 T01980132  RH  069%=      5-min Rain = 0
KTIS 251325Z 23008KT 20/13 A3003 RMK A01 T02000132  RH  067%=      5-min Rain = 0
KTIS 251330Z 22007KT 20/13 A3003 RMK A01 T02040132  RH  066%=      5-min Rain = 0
KTIS 251335Z 22007KT 21/13 A3003 RMK A01 T02080132  RH  064%=      5-min Rain = 0
KTIS 251340Z 22007KT 21/13 A3003 RMK A01 T02110132  RH  063%=      5-min Rain = 0
KTIS 251345Z 22008KT 22/13 A3003 RMK A01 T02150131  RH  061%=      5-min Rain = 0
KTIS 251350Z 23009KT 22/13 A3003 RMK A01 T02210129  RH  058%=      5-min Rain = 0
KTIS 251355Z 24011KT 23/13 A3003 RMK A01 T02260128  RH  056%=      5-min Rain = 0
KTIS 251400Z 24010KT 23/13 A3003 RMK A01 T02310127  RH  054%=      5-min Rain = 0
KTIS 251405Z 23012KT 24/13 A3004 RMK A01 T02350126  RH  052%=      5-min Rain = 0
KTIS 251410Z 23012G17KT 24/13 A3004 RMK A01 T02380126  RH  051%=      5-min Rain = 0
KTIS 251415Z 23012KT 24/13 A3004 RMK A01 T02400127  RH  051%=      5-min Rain = 0
KTIS 251420Z 23012G17KT 24/13 A3004 RMK A01 T02440129  RH  051%=      5-min Rain = 0
KTIS 251425Z 23013KT 25/13 A3004 RMK A01 T02460133  RH  051%=      5-min Rain = 0
KTIS 251430Z 23013KT 25/14 A3004 RMK A01 T02490137  RH  052%=      5-min Rain = 0
KTIS 251435Z 23013G18KT 25/14 A3004 RMK A01 T02520140  RH  052%=      5-min Rain = 0
KTIS 251440Z 22014G19KT 25/14 A3004 RMK A01 T02530141  RH  052%=      5-min Rain = 0
KTIS 251445Z 22012G19KT 25/14 A3004 RMK A01 T02540142  RH  052%=      5-min Rain = 0
KTIS 251450Z 22016G22KT 26/14 A3003 RMK A01 T02550143  RH  052%=      5-min Rain = 0
KTIS 251455Z 22015KT 26/14 A3003 RMK A01 T02560143  RH  052%=      5-min Rain = 0
KTIS 251500Z 22014G19KT 26/14 A3003 RMK A01 T02580144  RH  051%=      5-min Rain = 0
KTIS 251505Z 23014KT 26/14 A3003 RMK A01 T02620143  RH  050%=      5-min Rain = 0
KTIS 251510Z 22014G19KT 27/14 A3003 RMK A01 T02650143  RH  049%=      5-min Rain = 0
KTIS 251515Z 22015G21KT 26/14 A3003 RMK A01 T02640141  RH  049%=      5-min Rain = 0
KTIS 251520Z 23015G20KT 27/14 A3003 RMK A01 T02680140  RH  047%=      5-min Rain = 0
KTIS 251525Z 23014KT 27/14 A3003 RMK A01 T02690142  RH  048%=      5-min Rain = 0
KTIS 251530Z 23013KT 27/14 A3003 RMK A01 T02720142  RH  047%=      5-min Rain = 0
KTIS 251535Z 23012KT 27/14 A3003 RMK A01 T02740143  RH  047%=      5-min Rain = 0
KTIS 251540Z 22013KT 28/14 A3003 RMK A01 T02770144  RH  046%=      5-min Rain = 0
KTIS 251545Z 21014G19KT 28/14 A3003 RMK A01 T02750143  RH  046%=      5-min Rain = 0
KTIS 251550Z 23013G18KT 28/14 A3003 RMK A01 T02770143  RH  046%=      5-min Rain = 0
KTIS 251555Z 21011G16KT 28/15 A3003 RMK A01 T02800146  RH  046%=      5-min Rain = 0
KTIS 251600Z 21010G15KT 28/15 A3003 RMK A01 T02830148  RH  046%=      5-min Rain = 0
KTIS 251605Z 22010KT 28/15 A3003 RMK A01 T02830147  RH  045%=      5-min Rain = 0
KTIS 251610Z 24009G14KT 28/15 A3003 RMK A01 T02820149  RH  046%=      5-min Rain = 0
KTIS 251615Z 23010KT 29/15 A3003 RMK A01 T02890148  RH  044%=      5-min Rain = 0
KTIS 251620Z 22011KT 29/15 A3003 RMK A01 T02900146  RH  043%=      5-min Rain = 0
KTIS 251625Z 22010G15KT 29/15 A3003 RMK A01 T02920146  RH  043%=      5-min Rain = 0
KTIS 251630Z 22010KT 29/14 A3003 RMK A01 T02940143  RH  042%=      5-min Rain = 0
KTIS 251635Z 24010KT 30/14 A3003 RMK A01 T02970143  RH  041%=      5-min Rain = 0
KTIS 251640Z 22010G15KT 30/14 A3003 RMK A01 T03000142  RH  040%=      5-min Rain = 0
KTIS 251645Z 22010G16KT 30/14 A3003 RMK A01 T02980142  RH  040%=      5-min Rain = 0
KTIS 251650Z 22010KT 30/14 A3003 RMK A01 T03020144  RH  040%=      5-min Rain = 0
KTIS 251655Z 21010G15KT 30/14 A3003 RMK A01 T03030141  RH  039%=      5-min Rain = 0
KTIS 251700Z 22012KT 31/14 A3003 RMK A01 T03070139  RH  038%=      5-min Rain = 0
KTIS 251705Z 20009G14KT 31/14 A3003 RMK A01 T03070141  RH  038%=      5-min Rain = 0
KTIS 251710Z 20010KT 31/14 A3003 RMK A01 T03080139  RH  037%=      5-min Rain = 0
KTIS 251715Z 18010KT 31/14 A3003 RMK A01 T03110141  RH  037%=      5-min Rain = 0
KTIS 251720Z 19011KT 31/13 A3003 RMK A01 T03140134  RH  035%=      5-min Rain = 0
KTIS 251725Z 21009KT 32/14 A3003 RMK A01 T03170137  RH  035%=      5-min Rain = 0
KTIS 251730Z 19011G19KT 32/14 A3003 RMK A01 T03170136  RH  035%=      5-min Rain = 0
KTIS 251735Z 19010KT 32/14 A3003 RMK A01 T03180135  RH  034%=      5-min Rain = 0
KTIS 251740Z 20008G14KT 32/13 A3003 RMK A01 T03190132  RH  033%=      5-min Rain = 0
KTIS 251745Z 18010G15KT 32/14 A3003 RMK A01 T03220135  RH  034%=      5-min Rain = 0
KTIS 251750Z 18011G20KT 32/14 A3003 RMK A01 T03230136  RH  034%=      5-min Rain = 0
KTIS 251755Z 18013G19KT 33/13 A3003 RMK A01 T03250128  RH  031%=      5-min Rain = 0
KTIS 251800Z 19010G16KT 33/13 A3003 RMK A01 T03260125  RH  031%=      5-min Rain = 0
KTIS 251805Z 16010KT 33/13 A3002 RMK A01 T03250134  RH  033%=      5-min Rain = 0
KTIS 251810Z 18009KT 33/13 A3002 RMK A01 T03300131  RH  031%=      5-min Rain = 0
KTIS 251815Z 21008G15KT 33/13 A3002 RMK A01 T03270127  RH  031%=      5-min Rain = 0
KTIS 251820Z 18012G18KT 33/12 A3002 RMK A01 T03300124  RH  030%=      5-min Rain = 0
KTIS 251825Z 18011G16KT 33/12 A3002 RMK A01 T03310119  RH  029%=      5-min Rain = 0
KTIS 251830Z 19013G18KT 33/12 A3002 RMK A01 T03320118  RH  028%=      5-min Rain = 0
KTIS 251835Z 20010KT 33/12 A3002 RMK A01 T03340118  RH  028%=      5-min Rain = 0
KTIS 251840Z 20011G16KT 34/12 A3002 RMK A01 T03370116  RH  027%=      5-min Rain = 0
KTIS 251845Z 21011G19KT 34/12 A3002 RMK A01 T03370117  RH  027%=      5-min Rain = 0
KTIS 251850Z 19010G15KT 34/12 A3001 RMK A01 T03440123  RH  027%=      5-min Rain = 0
KTIS 251855Z 20012G17KT 34/12 A3001 RMK A01 T03430116  RH  026%=      5-min Rain = 0
KTIS 251900Z 22013G18KT 34/11 A3001 RMK A01 T03400105  RH  025%=      5-min Rain = 0
KTIS 251905Z 18010G15KT 34/11 A3001 RMK A01 T03400107  RH  025%=      5-min Rain = 0
KTIS 251910Z 17014G19KT 35/10 A3001 RMK A01 T03470103  RH  023%=      5-min Rain = 0
KTIS 251915Z 18012G18KT 34/10 A3001 RMK A01 T03440099  RH  023%=      5-min Rain = 0
KTIS 251920Z 18011G16KT 35/10 A3001 RMK A01 T03460104  RH  024%=      5-min Rain = 0
KTIS 251925Z 18012G17KT 35/10 A30 RMK A01 T03480096  RH  022%=      5-min Rain = 0
KTIS 251930Z 18011G17KT 35/10 A30 RMK A01 T03480102  RH  023%=      5-min Rain = 0
KTIS 251935Z 18012G17KT 35/10 A30 RMK A01 T03510101  RH  023%=      5-min Rain = 0
KTIS 251940Z 19011G17KT 35/09 A30 RMK A01 T03510091  RH  021%=      5-min Rain = 0
KTIS 251945Z 17009G14KT 35/09 A30 RMK A01 T03480090  RH  021%=      5-min Rain = 0
KTIS 251950Z 18013G19KT 35/09 A30 RMK A01 T03510092  RH  021%=      5-min Rain = 0
KTIS 251955Z 16009KT 35/11 A2999 RMK A01 T03490107  RH  024%=      5-min Rain = 0
KTIS 252000Z 16009G19KT 35/10 A2999 RMK A01 T03460104  RH  024%=      5-min Rain = 0
KTIS 252005Z 18014G19KT 35/10 A2999 RMK A01 T03540096  RH  021%=      5-min Rain = 0
KTIS 252010Z 17013G20KT 36/10 A2999 RMK A01 T03560104  RH  022%=      5-min Rain = 0
KTIS 252015Z 15015KT 35/10 A2999 RMK A01 T03450102  RH  024%=      5-min Rain = 0
KTIS 252020Z 17012G20KT 35/09 A2998 RMK A01 T03450094  RH  022%=      5-min Rain = 0
KTIS 252025Z 18014G21KT 35/10 A2998 RMK A01 T03490100  RH  023%=      5-min Rain = 0
KTIS 252030Z 14012G18KT 35/11 A2998 RMK A01 T03510106  RH  023%=      5-min Rain = 0
KTIS 252035Z 16011G17KT 35/10 A2998 RMK A01 T03500099  RH  022%=      5-min Rain = 0
KTIS 252040Z 16012G17KT 34/10 A2998 RMK A01 T03440096  RH  023%=      5-min Rain = 0
KTIS 252045Z 16013G19KT 35/10 A2997 RMK A01 T03510101  RH  023%=      5-min Rain = 0
KTIS 252050Z 15014G19KT 35/10 A2997 RMK A01 T03490097  RH  022%=      5-min Rain = 0
KTIS 252055Z 16014G21KT 34/09 A2996 RMK A01 T03400093  RH  023%=      5-min Rain = 0
KTIS 252100Z 15017KT 34/09 A2996 RMK A01 T03360092  RH  023%=      5-min Rain = 0
KTIS 252105Z 14016G25KT 35/10 A2996 RMK A01 T03450096  RH  022%=      5-min Rain = 0
KTIS 252110Z 15016G23KT 35/09 A2996 RMK A01 T03480093  RH  022%=      5-min Rain = 0
KTIS 252115Z 16015G23KT 34/09 A2995 RMK A01 T03380094  RH  023%=      5-min Rain = 0
KTIS 252120Z 16016KT 33/09 A2995 RMK A01 T03300093  RH  024%=      5-min Rain = 0
KTIS 252125Z 16016KT 33/09 A2995 RMK A01 T03330091  RH  023%=      5-min Rain = 0
KTIS 252130Z 16017KT 35/10 A2995 RMK A01 T03490096  RH  022%=      5-min Rain = 0
KTIS 252135Z 15017G26KT 35/10 A2994 RMK A01 T03490098  RH  022%=      5-min Rain = 0
KTIS 252140Z 15018G23KT 35/10 A2994 RMK A01 T03470100  RH  023%=      5-min Rain = 0
KTIS 252145Z 15017G26KT 34/10 A2994 RMK A01 T03420102  RH  024%=      5-min Rain = 0
KTIS 252150Z 16015G21KT 35/10 A2994 RMK A01 T03450100  RH  023%=      5-min Rain = 0
KTIS 252155Z 16018G25KT 34/10 A2994 RMK A01 T03380098  RH  024%=      5-min Rain = 0
KTIS 252200Z 15017G23KT 33/09 A2994 RMK A01 T03290093  RH  024%=      5-min Rain = 0
KTIS 252205Z 15016KT 33/10 A2994 RMK A01 T03270098  RH  025%=      5-min Rain = 0
KTIS 252210Z 15015G21KT 32/12 A2994 RMK A01 T03220116  RH  030%=      5-min Rain = 0
KTIS 252215Z 15015G20KT 33/12 A2994 RMK A01 T03280119  RH  029%=      5-min Rain = 0
KTIS 252220Z 16016KT 34/11 A2994 RMK A01 T03420112  RH  026%=      5-min Rain = 0
KTIS 252225Z 18016KT 34/10 A2993 RMK A01 T03400102  RH  024%=      5-min Rain = 0
KTIS 252230Z 17016G21KT 33/10 A2993 RMK A01 T03280099  RH  025%=      5-min Rain = 0
KTIS 252235Z 18015KT 33/09 A2993 RMK A01 T03280093  RH  024%=      5-min Rain = 0
KTIS 252240Z 17017G24KT 33/10 A2993 RMK A01 T03270103  RH  026%=      5-min Rain = 0
KTIS 252245Z 17016G23KT 33/10 A2993 RMK A01 T03270103  RH  026%=      5-min Rain = 0
KTIS 252250Z 17017G23KT 33/11 A2993 RMK A01 T03280107  RH  027%=      5-min Rain = 0
KTIS 252255Z 17018G23KT 33/12 A2993 RMK A01 T03270118  RH  029%=      5-min Rain = 0
KTIS 252300Z 17017KT 34/12 A2993 RMK A01 T03380124  RH  028%=      5-min Rain = 0
KTIS 252305Z 18019G26KT 34/12 A2992 RMK A01 T03410124  RH  028%=      5-min Rain = 0
KTIS 252310Z 17021G27KT 34/13 A2991 RMK A01 T03380125  RH  029%=      5-min Rain = 0
KTIS 252315Z 18021G27KT 34/13 A2991 RMK A01 T03360125  RH  029%=      5-min Rain = 0
KTIS 252320Z 16022G27KT 33/13 A2991 RMK A01 T03340132  RH  031%=      5-min Rain = 0
KTIS 252325Z 16020G25KT 33/13 A2991 RMK A01 T03330129  RH  030%=      5-min Rain = 0
KTIS 252330Z 17019G24KT 34/13 A2992 RMK A01 T03370127  RH  029%=      5-min Rain = 0
KTIS 252335Z 17018G24KT 34/13 A2992 RMK A01 T03350127  RH  029%=      5-min Rain = 0
KTIS 252340Z 16019G25KT 33/13 A2992 RMK A01 T03330129  RH  030%=      5-min Rain = 0
KTIS 252345Z 16019G26KT 33/13 A2993 RMK A01 T03310133  RH  031%=      5-min Rain = 0
KTIS 252350Z 15019G28KT 33/14 A2994 RMK A01 T03310135  RH  032%=      5-min Rain = 0
KTIS 252355Z 13021G28KT 32/13 A2995 RMK A01 T03230128  RH  032%=      5-min Rain = 0
KTIS 260000Z 06023G31KT 26/14 A2998 RMK A01 T02630140  RH  050%=      5-min Rain = 0
KTIS 260005Z 07019G26KT 22/14 A2997 RMK A01 T02150143  RH  066%=      5-min Rain = 0
KTIS 260010Z 06016G23KT 22/14 A2998 RMK A01 T02190140  RH  064%=      5-min Rain = 0
KTIS 260015Z 06022G28KT 22/14 A2998 RMK A01 T02220137  RH  061%=      5-min Rain = 0
KTIS 260020Z 06021G29KT 22/14 A2998 RMK A01 T02240135  RH  059%=      5-min Rain = 0
KTIS 260025Z 06019G26KT 22/14 A2999 RMK A01 T02170135  RH  062%=      5-min Rain = 0
KTIS 260030Z 05021G29KT 22/13 A2999 RMK A01 T02210134  RH  060%=      5-min Rain = 0
KTIS 260035Z 04024G32KT 22/12 A30 RMK A01 T02240119  RH  053%=      5-min Rain = 0
KTIS 260040Z 05023G34KT 22/12 A3002 RMK A01 T02150118  RH  056%=      5-min Rain = 0
KTIS 260045Z 05021G32KT 21/12 A3003 RMK A01 T02090119  RH  058%=      5-min Rain = 0
KTIS 260050Z 04025G36KT 21/12 A3004 RMK A01 T02130118  RH  057%=      5-min Rain = 0
KTIS 260055Z 03024G31KT 21/12 A3005 RMK A01 T02050122  RH  061%=      5-min Rain = 0
KTIS 260100Z 05026G34KT 20/12 A3003 RMK A01 T02030123  RH  063%=      5-min Rain = 0
KTIS 260105Z 06029G37KT 20/13 A3001 RMK A01 T02040130  RH  065%=      5-min Rain = 0
KTIS 260110Z 07028G34KT 20/14 A3002 RMK A01 T02040135  RH  067%=      5-min Rain = 0
KTIS 260115Z 06023G33KT 20/13 A3002 RMK A01 T01950134  RH  071%=      5-min Rain = 0
KTIS 260120Z 06030G44KT 19/13 A3002 RMK A01 T01920127  RH  069%=      5-min Rain = 0
KTIS 260125Z 05021G29KT 19/13 A3004 RMK A01 T01880126  RH  070%=      5-min Rain = 0
KTIS 260130Z 02008G17KT 19/13 A3006 RMK A01 T01910127  RH  069%=      5-min Rain = 0
KTIS 260135Z 05009G18KT 19/13 A3006 RMK A01 T01890132  RH  073%=      5-min Rain = 0
KTIS 260140Z 07017G23KT 19/13 A3006 RMK A01 T01920132  RH  071%=      5-min Rain = 0
KTIS 260145Z 08009G17KT 18/14 A3006 RMK A01 T01800135  RH  078%=      5-min Rain = 0
KTIS 260150Z 08010G16KT 18/14 A3007 RMK A01 T01840136  RH  076%=      5-min Rain = 0
KTIS 260155Z 11015KT 19/14 A3007 RMK A01 T01910136  RH  073%=      5-min Rain = 0
KTIS 260200Z 11013G18KT 19/14 A3006 RMK A01 T01880136  RH  074%=      5-min Rain = 0
KTIS 260205Z 11013KT 19/13 A3006 RMK A01 T01890133  RH  073%=      5-min Rain = 0
KTIS 260210Z 10015G21KT 19/13 A3006 RMK A01 T01930127  RH  068%=      5-min Rain = 0
KTIS 260215Z 11018G27KT 20/12 A3007 RMK A01 T01950124  RH  066%=      5-min Rain = 0
KTIS 260220Z 11022G32KT 19/13 A3007 RMK A01 T01930126  RH  068%=      5-min Rain = 0
KTIS 260225Z 12020G28KT 19/13 A3006 RMK A01 T01930131  RH  070%=      5-min Rain = 0
KTIS 260230Z 12021G31KT 20/14 A3006 RMK A01 T02020140  RH  071%=      5-min Rain = 0
KTIS 260235Z 12023G32KT 21/15 A3005 RMK A01 T02050147  RH  072%=      5-min Rain = 0
KTIS 260240Z 12021G27KT 20/15 A3005 RMK A01 T02040145  RH  072%=      5-min Rain = 0
KTIS 260245Z 12022G30KT 21/14 A3005 RMK A01 T02050140  RH  069%=      5-min Rain = 0
KTIS 260250Z 12020G25KT 21/13 A3004 RMK A01 T02100134  RH  064%=      5-min Rain = 0
KTIS 260255Z 12017G24KT 21/13 A3005 RMK A01 T02100128  RH  062%=      5-min Rain = 0
KTIS 260300Z 12019G24KT 21/12 A3005 RMK A01 T02130120  RH  057%=      5-min Rain = 0
KTIS 260305Z 12018G26KT 21/12 A3005 RMK A01 T02140118  RH  056%=      5-min Rain = 0
KTIS 260310Z 12017G23KT 22/12 A3006 RMK A01 T02180115  RH  054%=      5-min Rain = 0
KTIS 260315Z 12016G22KT 22/12 A3006 RMK A01 T02190116  RH  054%=      5-min Rain = 0
KTIS 260320Z 12015G20KT 22/12 A3006 RMK A01 T02170121  RH  056%=      5-min Rain = 0
KTIS 260325Z 13014G19KT 22/13 A3007 RMK A01 T02160126  RH  059%=      5-min Rain = 0
KTIS 260330Z 13015KT 22/13 A3008 RMK A01 T02160129  RH  060%=      5-min Rain = 0
KTIS 260335Z 13014G19KT 21/13 A3008 RMK A01 T02140129  RH  061%=      5-min Rain = 0
KTIS 260340Z 13010G15KT 21/13 A3008 RMK A01 T02090130  RH  063%=      5-min Rain = 0
KTIS 260345Z 13010KT 21/13 A3009 RMK A01 T02060131  RH  065%=      5-min Rain = 0
KTIS 260350Z 13008KT 20/13 A3009 RMK A01 T02030131  RH  066%=      5-min Rain = 0
KTIS 260355Z 11007KT 20/13 A301 RMK A01 T02020132  RH  067%=      5-min Rain = 0
KTIS 260400Z 09007KT 20/13 A301 RMK A01 T02020133  RH  067%=      5-min Rain = 0
KTIS 260405Z 09007KT 20/14 A301 RMK A01 T02030135  RH  068%=      5-min Rain = 0
KTIS 260410Z 09007KT 20/14 A3011 RMK A01 T02020135  RH  068%=      5-min Rain = 0
KTIS 260415Z 10006KT 20/14 A3011 RMK A01 T01990135  RH  070%=      5-min Rain = 0
KTIS 260420Z 10006KT 20/13 A3011 RMK A01 T01970134  RH  070%=      5-min Rain = 0
KTIS 260425Z 11007KT 20/13 A3012 RMK A01 T01960132  RH  069%=      5-min Rain = 0
KTIS 260430Z 11008KT 20/13 A3012 RMK A01 T01980130  RH  068%=      5-min Rain = 0
KTIS 260435Z 11009KT 20/13 A3012 RMK A01 T02000130  RH  067%=      5-min Rain = 0
KTIS 260440Z 11010KT 20/13 A3012 RMK A01 T02010130  RH  066%=      5-min Rain = 0
KTIS 260445Z 11011KT 20/13 A3012 RMK A01 T02010131  RH  067%=      5-min Rain = 0
KTIS 260450Z 11011KT 20/13 A3012 RMK A01 T02020131  RH  066%=      5-min Rain = 0
KTIS 260455Z 12010KT 20/13 A3012 RMK A01 T02010131  RH  067%=      5-min Rain = 0

Page generated in 0.0096 seconds.